createdAt,value
2018-09-08T00:02:20.791Z,12.72
2018-09-08T00:04:48.888Z,12.66
2018-09-08T00:07:22.333Z,12.66
2018-09-08T00:09:50.339Z,12.70
2018-09-08T00:12:18.325Z,12.64
2018-09-08T00:14:45.648Z,12.56
2018-09-08T00:17:19.104Z,12.56
2018-09-08T00:19:52.596Z,12.61
2018-09-08T00:22:26.288Z,12.66
2018-09-08T00:25:00.016Z,12.61
2018-09-08T00:27:33.494Z,12.50
2018-09-08T00:30:06.059Z,12.56
2018-09-08T00:32:34.887Z,12.60
2018-09-08T00:35:02.933Z,12.57
2018-09-08T00:37:31.089Z,12.60
2018-09-08T00:39:59.203Z,12.54
2018-09-08T00:42:27.243Z,12.45
2018-09-08T00:44:55.327Z,12.40
2018-09-08T00:47:23.387Z,12.43
2018-09-08T00:49:51.515Z,12.39
2018-09-08T00:52:19.561Z,12.37
2018-09-08T00:54:47.680Z,12.42
2018-09-08T00:57:15.730Z,12.43
2018-09-08T00:59:43.728Z,12.44
2018-09-08T01:02:11.790Z,12.42
2018-09-08T01:04:40.103Z,12.40
2018-09-08T01:07:13.527Z,12.41
2018-09-08T01:09:41.824Z,12.30
2018-09-08T01:12:09.888Z,12.25
2018-09-08T01:14:38.005Z,12.20
2018-09-08T01:17:06.099Z,12.15
2018-09-08T01:19:34.855Z,12.08
2018-09-08T01:22:04.001Z,12.16
2018-09-08T01:24:32.153Z,12.17
2018-09-08T01:27:00.160Z,12.18
2018-09-08T01:29:28.162Z,12.21
2018-09-08T01:31:56.205Z,12.18
2018-09-08T01:34:24.307Z,12.18
2018-09-08T01:36:52.474Z,12.17
2018-09-08T01:39:20.417Z,12.25
2018-09-08T01:41:48.444Z,12.23
2018-09-08T01:44:16.594Z,12.21
2018-09-08T01:46:44.652Z,12.17
2018-09-08T01:49:12.699Z,12.11
2018-09-08T01:51:40.705Z,12.08
2018-09-08T01:54:08.835Z,12.11
2018-09-08T01:56:36.917Z,12.03
2018-09-08T01:59:05.268Z,12.04
2018-09-08T02:01:33.709Z,12.00
2018-09-08T02:04:01.797Z,11.97
2018-09-08T02:06:29.927Z,11.96
2018-09-08T02:08:58.245Z,12.03
2018-09-08T02:11:26.359Z,12.00
2018-09-08T02:13:54.723Z,11.94
2018-09-08T02:16:23.064Z,11.93
2018-09-08T02:18:51.114Z,11.93
2018-09-08T02:21:19.433Z,12.02
2018-09-08T02:23:47.966Z,11.97
2018-09-08T02:26:16.036Z,11.87
2018-09-08T02:28:44.017Z,11.78
2018-09-08T02:31:12.496Z,11.77
2018-09-08T02:33:40.801Z,11.67
2018-09-08T02:36:09.019Z,11.62
2018-09-08T02:38:37.508Z,11.49
2018-09-08T02:41:05.874Z,11.43
2018-09-08T02:43:34.099Z,11.32
2018-09-08T02:46:02.296Z,11.38
2018-09-08T02:48:30.567Z,11.32
2018-09-08T02:50:58.717Z,11.27
2018-09-08T02:53:25.581Z,11.28
2018-09-08T02:55:52.609Z,11.29
2018-09-08T02:58:19.583Z,11.27
2018-09-08T03:00:46.501Z,11.28
2018-09-08T03:03:14.342Z,11.32
2018-09-08T03:05:41.256Z,11.37
2018-09-08T03:08:07.947Z,11.35
2018-09-08T03:10:34.727Z,11.32
2018-09-08T03:13:01.411Z,11.34
2018-09-08T03:15:28.230Z,11.41
2018-09-08T03:17:55.023Z,11.44
2018-09-08T03:20:21.737Z,11.40
2018-09-08T03:22:48.388Z,11.47
2018-09-08T03:25:15.213Z,11.45
2018-09-08T03:27:41.932Z,11.44
2018-09-08T03:30:08.682Z,11.39
2018-09-08T03:32:35.414Z,11.39
2018-09-08T03:35:02.238Z,11.34
2018-09-08T03:37:29.001Z,11.25
2018-09-08T03:39:56.425Z,11.31
2018-09-08T03:42:23.689Z,11.37
2018-09-08T03:44:50.620Z,11.28
2018-09-08T03:47:17.479Z,11.22
2018-09-08T03:49:44.626Z,11.16
2018-09-08T03:52:11.460Z,11.22
2018-09-08T03:54:38.354Z,11.19
2018-09-08T03:57:05.249Z,11.12
2018-09-08T03:59:32.112Z,11.13
2018-09-08T04:01:58.820Z,11.17
2018-09-08T04:04:26.961Z,11.19
2018-09-08T04:06:55.052Z,11.15
2018-09-08T04:09:23.217Z,11.21
2018-09-08T04:11:51.446Z,11.20
2018-09-08T04:14:19.633Z,11.27
2018-09-08T04:16:47.888Z,11.34
2018-09-08T04:19:16.353Z,11.36
2018-09-08T04:21:44.674Z,11.43
2018-09-08T04:24:12.858Z,11.55
2018-09-08T04:26:41.217Z,11.64
2018-09-08T04:29:09.471Z,11.87
2018-09-08T04:31:37.663Z,12.29
2018-09-08T04:34:06.025Z,12.70
2018-09-08T04:36:34.112Z,13.18
2018-09-08T04:39:02.652Z,13.62
2018-09-08T04:41:31.341Z,14.27
2018-09-08T04:43:59.677Z,14.90
2018-09-08T04:46:27.847Z,15.23
2018-09-08T04:48:55.951Z,15.72
2018-09-08T04:51:24.798Z,16.00
2018-09-08T04:53:53.890Z,15.45
2018-09-08T04:56:22.587Z,15.34
2018-09-08T04:58:50.889Z,15.73
2018-09-08T05:01:19.712Z,15.72
2018-09-08T05:03:48.338Z,15.72
2018-09-08T05:06:16.899Z,15.16
2018-09-08T05:08:46.103Z,15.16
2018-09-08T05:11:14.678Z,15.29
2018-09-08T05:13:44.161Z,15.66
2018-09-08T05:16:12.807Z,16.13
2018-09-08T05:18:41.740Z,16.67
2018-09-08T05:21:10.156Z,17.05
2018-09-08T05:23:38.265Z,17.36
2018-09-08T05:26:06.785Z,17.42
2018-09-08T05:28:35.035Z,17.51
2018-09-08T05:31:03.276Z,17.67
2018-09-08T05:33:31.468Z,17.83
2018-09-08T05:35:59.838Z,17.95
2018-09-08T05:38:28.108Z,18.32
2018-09-08T05:40:56.203Z,18.86
2018-09-08T05:43:24.895Z,18.85
2018-09-08T05:45:53.310Z,18.72
2018-09-08T05:48:22.207Z,18.49
2018-09-08T05:50:52.980Z,18.34
2018-09-08T05:53:24.704Z,17.89
2018-09-08T05:55:55.126Z,17.42
2018-09-08T05:58:33.099Z,17.40
2018-09-08T06:01:03.234Z,17.38
2018-09-08T06:03:31.749Z,17.52
2018-09-08T06:06:00.177Z,17.45
2018-09-08T06:08:28.766Z,17.68
2018-09-08T06:10:57.369Z,17.98
2018-09-08T06:13:26.569Z,18.05
2018-09-08T06:15:55.136Z,18.03
2018-09-08T06:18:24.050Z,18.08
2018-09-08T06:20:53.649Z,17.95
2018-09-08T06:23:22.396Z,17.76
2018-09-08T06:25:51.670Z,17.82
2018-09-08T06:28:21.828Z,18.72
2018-09-08T06:30:49.946Z,18.77
2018-09-08T06:33:18.437Z,18.63
2018-09-08T06:35:46.739Z,18.33
2018-09-08T06:38:14.867Z,18.51
2018-09-08T06:40:43.281Z,18.49
2018-09-08T06:43:11.745Z,18.81
2018-09-08T06:45:40.206Z,19.02
2018-09-08T06:48:08.793Z,19.08
2018-09-08T06:50:37.150Z,19.78
2018-09-08T06:53:05.467Z,20.44
2018-09-08T06:55:34.401Z,20.65
2018-09-08T06:58:02.681Z,20.51
2018-09-08T07:00:31.477Z,20.60
2018-09-08T07:03:00.087Z,20.88
2018-09-08T07:07:55.817Z,21.74
2018-09-08T07:10:24.360Z,21.28
2018-09-08T07:12:52.569Z,21.22
2018-09-08T07:15:20.745Z,21.30
2018-09-08T07:17:49.396Z,21.04
2018-09-08T07:20:17.713Z,21.13
2018-09-08T07:22:45.893Z,21.76
2018-09-08T07:25:14.180Z,21.94
2018-09-08T07:27:42.681Z,21.51
2018-09-08T07:30:11.077Z,21.53
2018-09-08T07:32:39.439Z,21.68
2018-09-08T07:35:10.235Z,21.92
2018-09-08T07:37:38.581Z,21.70
2018-09-08T07:40:06.991Z,21.78
2018-09-08T07:42:35.383Z,22.23
2018-09-08T07:45:04.099Z,23.04
2018-09-08T07:47:32.634Z,23.93
2018-09-08T07:50:00.889Z,24.21
2018-09-08T07:52:29.078Z,24.05
2018-09-08T07:54:58.134Z,23.72
2018-09-08T07:57:26.788Z,23.52
2018-09-08T07:59:55.107Z,23.49
2018-09-08T08:02:23.441Z,23.16
2018-09-08T08:04:51.578Z,23.33
2018-09-08T08:07:20.323Z,23.38
2018-09-08T08:09:48.810Z,23.93
2018-09-08T08:12:17.524Z,24.93
2018-09-08T08:14:45.938Z,24.70
2018-09-08T08:17:14.468Z,24.53
2018-09-08T08:19:42.919Z,24.34
2018-09-08T08:22:11.312Z,24.08
2018-09-08T08:24:39.856Z,24.15
2018-09-08T08:27:08.771Z,24.31
2018-09-08T08:29:37.139Z,24.20
2018-09-08T08:32:05.875Z,24.09
2018-09-08T08:34:34.321Z,24.26
2018-09-08T08:37:02.967Z,24.36
2018-09-08T08:39:31.365Z,24.00
2018-09-08T08:41:59.969Z,24.01
2018-09-08T08:44:28.840Z,23.95
2018-09-08T08:46:58.268Z,24.02
2018-09-08T08:49:27.265Z,24.01
2018-09-08T08:52:06.528Z,24.23
2018-09-08T08:54:41.449Z,23.85
2018-09-08T08:57:11.286Z,23.95
2018-09-08T08:59:39.864Z,23.57
2018-09-08T09:02:08.377Z,23.49
2018-09-08T09:04:37.337Z,23.71
2018-09-08T09:07:06.243Z,23.68
2018-09-08T09:09:34.623Z,23.61
2018-09-08T09:12:03.191Z,23.87
2018-09-08T09:14:31.810Z,23.83
2018-09-08T09:17:01.105Z,23.96
2018-09-08T09:19:41.676Z,23.96
2018-09-08T09:22:22.412Z,23.94
2018-09-08T09:24:59.182Z,23.80
2018-09-08T09:27:28.736Z,23.47
2018-09-08T09:29:57.655Z,23.43
2018-09-08T09:32:26.852Z,23.33
2018-09-08T09:34:55.198Z,23.42
2018-09-08T09:37:23.751Z,23.57
2018-09-08T09:39:52.444Z,23.92
2018-09-08T09:42:20.497Z,24.24
2018-09-08T09:44:48.625Z,24.40
2018-09-08T09:47:17.055Z,24.74
2018-09-08T09:49:45.160Z,24.97
2018-09-08T09:52:13.487Z,26.17
2018-09-08T09:54:41.825Z,26.33
2018-09-08T09:57:10.147Z,25.84
2018-09-08T09:59:38.313Z,25.62
2018-09-08T10:02:12.848Z,25.43
2018-09-08T10:04:41.030Z,25.36
2018-09-08T10:07:10.492Z,25.07
2018-09-08T10:09:40.194Z,25.46
2018-09-08T10:12:08.700Z,26.44
2018-09-08T10:14:37.526Z,26.98
2018-09-08T10:17:06.906Z,26.57
2018-09-08T10:19:36.419Z,26.42
2018-09-08T10:22:05.151Z,26.19
2018-09-08T10:24:33.690Z,25.23
2018-09-08T10:27:02.142Z,25.02
2018-09-08T10:29:31.176Z,24.23
2018-09-08T10:32:00.053Z,23.52
2018-09-08T10:34:29.141Z,22.39
2018-09-08T10:36:57.862Z,21.24
2018-09-08T10:39:26.752Z,20.74
2018-09-08T10:41:55.462Z,20.56
2018-09-08T10:44:24.089Z,20.67
2018-09-08T10:46:52.981Z,20.88
2018-09-08T10:49:21.746Z,20.68
2018-09-08T10:52:02.485Z,20.43
2018-09-08T10:54:30.915Z,20.51
2018-09-08T10:56:59.706Z,19.99
2018-09-08T10:59:28.318Z,20.10
2018-09-08T11:01:57.215Z,20.47
2018-09-08T11:04:25.934Z,20.51
2018-09-08T11:06:58.570Z,20.59
2018-09-08T11:09:27.289Z,20.37
2018-09-08T11:11:56.122Z,20.65
2018-09-08T11:14:24.860Z,20.70
2018-09-08T11:16:54.536Z,20.48
2018-09-08T11:19:26.533Z,20.64
2018-09-08T11:21:55.898Z,20.97
2018-09-08T11:24:24.793Z,21.22
2018-09-08T11:26:54.135Z,21.64
2018-09-08T11:29:23.157Z,22.28
2018-09-08T11:31:52.131Z,23.13
2018-09-08T11:34:20.770Z,23.62
2018-09-08T11:36:50.145Z,24.03
2018-09-08T11:39:19.161Z,24.26
2018-09-08T11:41:48.142Z,24.45
2018-09-08T11:44:17.598Z,24.38
2018-09-08T11:46:48.142Z,24.27
2018-09-08T11:49:17.094Z,24.18
2018-09-08T11:51:45.665Z,24.21
2018-09-08T11:54:14.239Z,23.92
2018-09-08T11:56:43.254Z,23.72
2018-09-08T11:59:12.068Z,23.58
2018-09-08T12:01:40.593Z,23.74
2018-09-08T12:04:10.430Z,23.87
2018-09-08T12:06:39.338Z,23.72
2018-09-08T12:09:10.245Z,23.82
2018-09-08T12:11:39.332Z,23.87
2018-09-08T12:14:08.887Z,23.75
2018-09-08T12:16:39.075Z,23.76
2018-09-08T12:19:07.682Z,23.83
2018-09-08T12:21:36.294Z,23.99
2018-09-08T12:24:04.869Z,24.49
2018-09-08T12:26:38.896Z,24.75
2018-09-08T12:29:07.531Z,25.02
2018-09-08T12:31:39.653Z,25.04
2018-09-08T12:34:08.035Z,24.78
2018-09-08T12:36:37.679Z,24.94
2018-09-08T12:39:08.696Z,24.87
2018-09-08T12:41:37.057Z,24.46
2018-09-08T12:44:05.459Z,24.05
2018-09-08T12:46:34.035Z,23.90
2018-09-08T12:49:02.604Z,24.33
2018-09-08T12:51:31.676Z,24.88
2018-09-08T12:54:01.846Z,24.70
2018-09-08T12:56:33.729Z,24.83
2018-09-08T12:59:04.079Z,24.67
2018-09-08T13:01:36.105Z,24.74
2018-09-08T13:04:04.768Z,25.24
2018-09-08T13:06:34.605Z,25.22
2018-09-08T13:09:04.141Z,25.23
2018-09-08T13:11:32.647Z,25.29
2018-09-08T13:14:01.196Z,25.14
2018-09-08T13:16:29.618Z,23.56
2018-09-08T13:18:58.218Z,22.71
2018-09-08T13:21:26.609Z,22.72
2018-09-08T13:23:55.456Z,23.03
2018-09-08T13:26:24.400Z,23.16
2018-09-08T13:28:53.061Z,22.91
2018-09-08T13:31:22.868Z,22.76
2018-09-08T13:33:51.700Z,22.66
2018-09-08T13:36:21.424Z,22.58
2018-09-08T13:38:49.998Z,22.50
2018-09-08T13:41:19.664Z,22.43
2018-09-08T13:43:48.313Z,22.76
2018-09-08T13:46:18.099Z,23.09
2018-09-08T13:48:46.941Z,23.27
2018-09-08T13:51:15.425Z,23.58
2018-09-08T13:53:49.192Z,23.81
2018-09-08T13:56:18.169Z,23.86
2018-09-08T13:58:46.500Z,23.96
2018-09-08T14:01:14.815Z,23.82
2018-09-08T14:03:43.405Z,23.94
2018-09-08T14:06:12.085Z,23.88
2018-09-08T14:08:40.752Z,23.73
2018-09-08T14:11:09.268Z,23.73
2018-09-08T14:13:37.997Z,23.58
2018-09-08T14:16:06.925Z,23.69
2018-09-08T14:18:35.484Z,23.72
2018-09-08T14:21:04.469Z,23.62
2018-09-08T14:23:32.968Z,23.59
2018-09-08T14:26:02.397Z,23.51
2018-09-08T14:28:30.795Z,23.18
2018-09-08T14:30:59.507Z,23.15
2018-09-08T14:33:28.298Z,23.01
2018-09-08T14:35:56.896Z,23.03
2018-09-08T14:38:25.490Z,22.98
2018-09-08T14:40:54.023Z,22.74
2018-09-08T14:43:22.347Z,22.66
2018-09-08T14:45:51.815Z,22.64
2018-09-08T14:48:20.330Z,22.54
2018-09-08T14:50:48.826Z,22.65
2018-09-08T14:53:17.242Z,22.55
2018-09-08T14:55:48.129Z,22.45
2018-09-08T14:58:16.739Z,22.43
2018-09-08T15:00:45.226Z,22.40
2018-09-08T15:03:13.920Z,22.32
2018-09-08T15:05:46.559Z,22.32
2018-09-08T15:08:15.117Z,22.25
2018-09-08T15:10:44.129Z,22.08
2018-09-08T15:13:12.942Z,22.03
2018-09-08T15:15:41.529Z,21.97
2018-09-08T15:18:10.233Z,21.99
2018-09-08T15:20:38.684Z,21.93
2018-09-08T15:23:07.243Z,21.84
2018-09-08T15:25:36.166Z,21.77
2018-09-08T15:28:05.111Z,21.76
2018-09-08T15:30:33.731Z,21.68
2018-09-08T15:33:02.711Z,21.62
2018-09-08T15:35:31.667Z,21.23
2018-09-08T15:38:00.326Z,21.08
2018-09-08T15:40:28.778Z,21.02
2018-09-08T15:42:57.544Z,21.10
2018-09-08T15:45:26.202Z,21.02
2018-09-08T15:47:55.477Z,20.93
2018-09-08T15:50:24.036Z,20.76
2018-09-08T15:52:52.481Z,20.83
2018-09-08T15:55:21.311Z,20.65
2018-09-08T15:57:51.283Z,20.52
2018-09-08T16:00:21.168Z,20.26
2018-09-08T16:05:46.639Z,20.07
2018-09-08T16:08:16.199Z,20.02
2018-09-08T16:10:44.733Z,19.93
2018-09-08T16:13:13.209Z,19.78
2018-09-08T16:15:42.110Z,19.61
2018-09-08T16:18:10.526Z,19.48
2018-09-08T16:20:40.762Z,19.33
2018-09-08T16:23:09.307Z,19.30
2018-09-08T16:25:38.070Z,19.23
2018-09-08T16:28:06.810Z,19.15
2018-09-08T16:30:35.589Z,18.95
2018-09-08T16:33:04.194Z,18.76
2018-09-08T16:35:32.551Z,18.70
2018-09-08T16:38:03.004Z,18.44
2018-09-08T16:40:32.659Z,18.32
2018-09-08T16:43:01.523Z,18.22
2018-09-08T16:45:29.921Z,17.95
2018-09-08T16:48:01.104Z,17.90
2018-09-08T16:50:29.645Z,17.86
2018-09-08T16:52:57.973Z,17.70
2018-09-08T16:55:26.317Z,17.61
2018-09-08T16:57:56.750Z,17.43
2018-09-08T17:00:25.488Z,17.35
2018-09-08T17:02:54.140Z,17.15
2018-09-08T17:05:23.241Z,17.06
2018-09-08T17:07:51.935Z,17.23
2018-09-08T17:10:22.199Z,17.09
2018-09-08T17:12:50.903Z,16.98
2018-09-08T17:15:21.472Z,16.86
2018-09-08T17:17:52.960Z,16.80
2018-09-08T17:20:21.657Z,16.64
2018-09-08T17:22:50.356Z,16.58
2018-09-08T17:25:19.465Z,16.49
2018-09-08T17:27:49.891Z,16.45
2018-09-08T17:30:18.334Z,16.31
2018-09-08T17:32:47.298Z,16.22
2018-09-08T17:35:15.646Z,16.17
2018-09-08T17:37:44.403Z,16.14
2018-09-08T17:40:12.933Z,16.10
2018-09-08T17:42:41.412Z,16.10
2018-09-08T17:45:10.368Z,16.23
2018-09-08T17:47:39.387Z,16.18
2018-09-08T17:50:08.351Z,16.25
2018-09-08T17:52:37.388Z,16.14
2018-09-08T17:55:06.269Z,16.12
2018-09-08T17:57:35.215Z,16.70
2018-09-08T18:00:04.399Z,16.42
2018-09-08T18:02:39.725Z,16.22
2018-09-08T18:05:08.442Z,16.06
2018-09-08T18:07:37.111Z,16.06
2018-09-08T18:10:07.366Z,15.96
2018-09-08T18:12:36.152Z,15.94
2018-09-08T18:15:06.062Z,15.86
2018-09-08T18:17:35.539Z,15.77
2018-09-08T18:20:05.556Z,15.67
2018-09-08T18:22:35.539Z,15.57
2018-09-08T18:25:06.047Z,15.53
2018-09-08T18:27:34.846Z,15.35
2018-09-08T18:30:03.755Z,15.31
2018-09-08T18:32:33.102Z,15.24
2018-09-08T18:35:02.001Z,15.17
2018-09-08T18:37:31.766Z,15.13
2018-09-08T18:40:00.385Z,15.09
2018-09-08T18:42:29.377Z,15.02
2018-09-08T18:44:59.949Z,14.96
2018-09-08T18:47:30.030Z,14.99
2018-09-08T18:49:58.813Z,14.89
2018-09-08T18:52:27.365Z,14.87
2018-09-08T18:54:56.123Z,14.89
2018-09-08T18:57:25.588Z,14.86
2018-09-08T18:59:54.047Z,14.84
2018-09-08T19:02:22.756Z,14.82
2018-09-08T19:04:52.422Z,14.78
2018-09-08T19:07:23.039Z,14.72
2018-09-08T19:09:57.178Z,14.64
2018-09-08T19:12:25.660Z,14.62
2018-09-08T19:14:59.726Z,14.60
2018-09-08T19:17:28.152Z,14.53
2018-09-08T19:20:02.374Z,14.53
2018-09-08T19:22:30.896Z,14.48
2018-09-08T19:24:59.530Z,14.49
2018-09-08T19:27:28.404Z,14.45
2018-09-08T19:30:01.376Z,14.43
2018-09-08T19:32:30.284Z,14.41
2018-09-08T19:35:04.937Z,14.39
2018-09-08T19:37:35.424Z,14.43
2018-09-08T19:40:09.414Z,14.37
2018-09-08T19:42:38.706Z,14.34
2018-09-08T19:45:08.698Z,14.32
2018-09-08T19:47:42.943Z,14.29
2018-09-08T19:50:11.568Z,14.27
2018-09-08T19:52:47.103Z,14.23
2018-09-08T19:55:15.967Z,14.22
2018-09-08T19:57:50.071Z,14.26
2018-09-08T20:00:18.748Z,14.23
2018-09-08T20:02:47.320Z,14.20
2018-09-08T20:05:16.217Z,14.19
2018-09-08T20:07:44.794Z,14.18
2018-09-08T20:10:13.396Z,14.15
2018-09-08T20:12:43.279Z,14.11
2018-09-08T20:15:12.181Z,14.14
2018-09-08T20:17:41.162Z,14.11
2018-09-08T20:20:09.994Z,14.09
2018-09-08T20:22:38.960Z,14.07
2018-09-08T20:25:07.899Z,14.04
2018-09-08T20:27:37.187Z,14.06
2018-09-08T20:30:07.724Z,14.02
2018-09-08T20:32:36.450Z,14.03
2018-09-08T20:35:05.632Z,14.01
2018-09-08T20:37:35.320Z,13.98
2018-09-08T20:40:04.376Z,13.93
2018-09-08T20:42:33.696Z,13.91
2018-09-08T20:45:03.958Z,13.83
2018-09-08T20:47:32.655Z,13.77
2018-09-08T20:50:01.457Z,13.77
2018-09-08T20:52:30.360Z,13.78
2018-09-08T20:54:59.398Z,13.76
2018-09-08T20:57:27.913Z,13.76
2018-09-08T20:59:56.238Z,13.72
2018-09-08T21:02:25.401Z,13.81
2018-09-08T21:04:56.276Z,13.79
2018-09-08T21:07:24.936Z,13.77
2018-09-08T21:09:53.776Z,13.76
2018-09-08T21:12:22.617Z,13.77
2018-09-08T21:14:52.517Z,13.77
2018-09-08T21:17:21.058Z,13.75
2018-09-08T21:19:49.452Z,13.78
2018-09-08T21:22:17.970Z,13.78
2018-09-08T21:24:46.645Z,13.79
2018-09-08T21:27:15.269Z,13.75
2018-09-08T21:29:43.741Z,13.78
2018-09-08T21:32:12.478Z,13.82
2018-09-08T21:34:41.194Z,13.80
2018-09-08T21:37:09.947Z,13.75
2018-09-08T21:39:38.441Z,13.75
2018-09-08T21:42:07.039Z,13.73
2018-09-08T21:44:35.508Z,13.74
2018-09-08T21:47:05.912Z,13.73
2018-09-08T21:49:33.178Z,13.74
2018-09-08T21:52:01.837Z,13.73
2018-09-08T21:54:30.538Z,13.80
2018-09-08T21:56:59.209Z,13.77
2018-09-08T21:59:27.732Z,13.76
2018-09-08T22:01:56.494Z,13.73
2018-09-08T22:04:25.114Z,13.75
2018-09-08T22:06:53.906Z,13.73
2018-09-08T22:09:22.366Z,13.72
2018-09-08T22:11:50.861Z,13.75
2018-09-08T22:14:19.969Z,13.78
2018-09-08T22:16:48.556Z,13.77
2018-09-08T22:19:17.089Z,13.79
2018-09-08T22:21:45.682Z,13.73
2018-09-08T22:24:14.192Z,13.70
2018-09-08T22:26:42.915Z,13.67
2018-09-08T22:29:11.361Z,13.62
2018-09-08T22:31:39.960Z,13.63
2018-09-08T22:34:08.485Z,13.64
2018-09-08T22:36:37.111Z,13.62
2018-09-08T22:39:07.489Z,13.55
2018-09-08T22:41:35.918Z,13.51
2018-09-08T22:44:04.591Z,13.48
2018-09-08T22:46:33.132Z,13.47
2018-09-08T22:49:01.584Z,13.43
2018-09-08T22:51:30.100Z,13.39
2018-09-08T22:53:58.763Z,13.37
2018-09-08T22:56:27.257Z,13.35
2018-09-08T22:58:55.785Z,13.30
2018-09-08T23:01:24.280Z,13.30
2018-09-08T23:03:52.899Z,13.26
2018-09-08T23:06:21.496Z,13.24
2018-09-08T23:08:49.864Z,13.23
2018-09-08T23:11:18.423Z,13.19
2018-09-08T23:13:47.093Z,13.17
2018-09-08T23:16:15.607Z,13.16
2018-09-08T23:18:44.061Z,13.16
2018-09-08T23:21:12.665Z,13.17
2018-09-08T23:23:41.137Z,13.09
2018-09-08T23:26:09.647Z,13.02
2018-09-08T23:28:38.353Z,12.99
2018-09-08T23:31:06.978Z,13.00
2018-09-08T23:33:35.564Z,13.01
2018-09-08T23:36:04.005Z,13.00
2018-09-08T23:38:32.508Z,13.02
2018-09-08T23:41:00.997Z,13.00
2018-09-08T23:43:29.445Z,12.98
2018-09-08T23:45:57.900Z,12.95
2018-09-08T23:48:27.068Z,12.95
2018-09-08T23:50:56.201Z,12.92
2018-09-08T23:53:24.908Z,12.91
2018-09-08T23:55:53.465Z,12.90
2018-09-08T23:58:22.041Z,12.88
